createdAt,value
2019-05-02T00:00:32.619Z,90.22
2019-05-02T00:03:04.402Z,88.75
2019-05-02T00:05:33.643Z,94.90
2019-05-02T00:08:03.286Z,93.97
2019-05-02T00:10:34.655Z,101.33
2019-05-02T00:13:04.139Z,91.50
2019-05-02T00:15:38.099Z,96.20
2019-05-02T00:18:04.959Z,95.95
2019-05-02T00:20:34.457Z,99.80
2019-05-02T00:23:03.899Z,103.35
2019-05-02T00:25:33.332Z,100.18
2019-05-02T00:28:02.795Z,100.18
2019-05-02T00:30:34.712Z,97.12
2019-05-02T00:33:03.512Z,96.25
2019-05-02T00:35:32.964Z,97.50
2019-05-02T00:38:02.684Z,99.35
2019-05-02T00:40:33.359Z,101.95
2019-05-02T00:43:03.147Z,99.60
2019-05-02T00:45:32.896Z,99.22
2019-05-02T00:48:19.330Z,96.40
2019-05-02T00:50:52.541Z,104.83
2019-05-02T00:53:22.179Z,101.87
2019-05-02T00:55:51.648Z,99.85
2019-05-02T00:58:21.087Z,102.38
2019-05-02T01:01:03.930Z,96.32
2019-05-02T01:03:35.030Z,98.80
2019-05-02T01:06:04.597Z,98.17
2019-05-02T01:08:35.696Z,102.47
2019-05-02T01:11:05.119Z,98.40
2019-05-02T01:13:34.489Z,98.70
2019-05-02T01:16:03.989Z,98.65
2019-05-02T01:18:37.267Z,101.18
2019-05-02T01:21:04.567Z,97.57
2019-05-02T01:23:34.003Z,94.13
2019-05-02T01:26:03.359Z,99.65
2019-05-02T01:28:54.247Z,102.85
2019-05-02T01:31:30.012Z,93.30
2019-05-02T01:34:04.127Z,87.35
2019-05-02T01:36:36.757Z,95.97
2019-05-02T01:39:08.793Z,93.97
2019-05-02T01:41:38.422Z,96.78
2019-05-02T01:44:07.764Z,94.25
2019-05-02T01:46:37.128Z,93.92
2019-05-02T01:49:07.662Z,96.40
2019-05-02T01:51:37.099Z,94.20
2019-05-02T01:54:10.075Z,92.17
2019-05-02T01:56:39.415Z,89.30
2019-05-02T01:59:08.772Z,94.30
2019-05-02T02:01:38.134Z,93.25
2019-05-02T02:04:07.496Z,89.28
2019-05-02T02:06:56.183Z,97.80
2019-05-02T02:09:25.575Z,89.50
2019-05-02T02:11:55.020Z,93.78
2019-05-02T02:14:24.388Z,92.10
2019-05-02T02:16:53.764Z,91.28
2019-05-02T02:19:24.761Z,91.80
2019-05-02T02:22:02.812Z,91.65
2019-05-02T02:24:40.348Z,91.57
2019-05-02T02:27:09.811Z,90.40
2019-05-02T02:29:43.878Z,90.22
2019-05-02T02:32:10.326Z,86.63
2019-05-02T02:34:39.803Z,91.47
2019-05-02T02:37:12.504Z,89.67
2019-05-02T02:39:40.275Z,86.57
2019-05-02T02:42:09.726Z,87.12
2019-05-02T02:44:49.265Z,85.77
2019-05-02T02:47:20.980Z,96.22
2019-05-02T02:49:55.709Z,92.65
2019-05-02T02:52:20.820Z,86.22
2019-05-02T02:54:50.262Z,88.47
2019-05-02T02:57:26.223Z,84.42
2019-05-02T02:59:51.947Z,89.60
2019-05-02T03:02:21.324Z,91.65
2019-05-02T03:04:50.752Z,91.30
2019-05-02T03:07:25.808Z,85.65
2019-05-02T03:09:51.199Z,90.17
2019-05-02T03:12:23.362Z,87.85
2019-05-02T03:14:54.624Z,90.72
2019-05-02T03:17:25.923Z,91.67
2019-05-02T03:20:00.955Z,87.95
2019-05-02T03:22:26.254Z,93.70
2019-05-02T03:24:56.154Z,82.22
2019-05-02T03:27:29.934Z,88.17
2019-05-02T03:29:57.389Z,86.05
2019-05-02T03:32:34.137Z,87.78
2019-05-02T03:34:58.333Z,87.40
2019-05-02T03:37:28.016Z,87.55
2019-05-02T03:40:00.294Z,89.15
2019-05-02T03:42:28.438Z,82.40
2019-05-02T03:45:03.847Z,91.08
2019-05-02T03:47:29.345Z,94.13
2019-05-02T03:49:59.372Z,89.55
2019-05-02T03:52:28.848Z,86.50
2019-05-02T03:58:33.016Z,87.03
2019-05-02T04:01:03.848Z,83.33
2019-05-02T04:03:40.761Z,92.02
2019-05-02T04:06:05.320Z,88.65
2019-05-02T04:08:36.047Z,90.00
2019-05-02T04:11:17.559Z,85.72
2019-05-02T04:13:47.957Z,92.92
2019-05-02T04:16:18.080Z,92.02
2019-05-02T04:18:54.997Z,89.40
2019-05-02T04:21:24.226Z,87.67
2019-05-02T04:23:51.207Z,90.22
2019-05-02T04:29:55.380Z,90.20
2019-05-02T04:32:24.830Z,87.15
2019-05-02T04:34:55.154Z,91.12
2019-05-02T04:37:25.340Z,92.88
2019-05-02T04:43:29.966Z,91.50
2019-05-02T04:46:00.285Z,91.05
2019-05-02T04:51:50.675Z,89.95
2019-05-02T04:54:22.059Z,88.95
2019-05-02T05:01:10.096Z,94.95
2019-05-02T05:03:39.691Z,87.65
2019-05-02T05:09:20.831Z,95.85
2019-05-02T05:11:53.792Z,93.30
2019-05-02T05:14:21.260Z,94.05
2019-05-02T05:16:55.341Z,90.05
2019-05-02T05:19:22.975Z,100.92
2019-05-02T05:21:58.879Z,91.02
2019-05-02T05:24:42.445Z,95.35
2019-05-02T05:27:13.414Z,93.03
2019-05-02T05:29:45.931Z,94.77
2019-05-02T05:32:15.229Z,97.78
2019-05-02T05:34:44.663Z,92.02
2019-05-02T05:40:37.610Z,95.38
2019-05-02T05:43:14.160Z,95.00
2019-05-02T05:45:51.189Z,100.78
2019-05-02T05:48:09.224Z,102.00
2019-05-02T05:50:41.386Z,99.70
2019-05-02T05:53:12.414Z,94.30
2019-05-02T05:55:40.809Z,97.10
2019-05-02T05:58:15.173Z,91.00
2019-05-02T06:00:45.863Z,89.30
2019-05-02T06:03:14.267Z,87.82
2019-05-02T06:05:43.708Z,90.20
2019-05-02T06:08:13.874Z,95.70
2019-05-02T06:10:45.169Z,92.30
2019-05-02T06:13:14.695Z,97.78
2019-05-02T06:15:45.881Z,101.58
2019-05-02T06:18:15.200Z,98.33
2019-05-02T06:20:44.679Z,90.05
2019-05-02T06:23:16.032Z,90.57
2019-05-02T06:25:45.103Z,103.70
2019-05-02T06:28:14.472Z,95.50
2019-05-02T06:30:44.063Z,96.42
2019-05-02T06:33:13.415Z,99.37
2019-05-02T06:35:42.831Z,95.28
2019-05-02T06:38:15.068Z,98.30
2019-05-02T06:40:46.605Z,100.50
2019-05-02T06:43:16.171Z,107.30
2019-05-02T06:45:45.623Z,106.25
2019-05-02T06:48:17.745Z,103.17
2019-05-02T06:50:46.164Z,109.37
2019-05-02T06:53:15.538Z,109.57
2019-05-02T06:55:45.135Z,119.13
2019-05-02T06:58:14.504Z,116.00
2019-05-02T07:00:56.543Z,118.57
2019-05-02T07:03:16.097Z,126.30
2019-05-02T07:05:45.519Z,116.00
2019-05-02T07:08:16.366Z,122.13
2019-05-02T07:10:45.790Z,113.03
2019-05-02T07:13:15.574Z,107.17
2019-05-02T07:15:55.199Z,110.95
2019-05-02T07:18:26.287Z,85.28
2019-05-02T07:20:55.728Z,97.10
2019-05-02T07:23:25.268Z,106.22
2019-05-02T07:25:54.639Z,106.97
2019-05-02T07:28:24.333Z,113.85
2019-05-02T07:30:54.783Z,111.37
2019-05-02T07:33:24.499Z,103.25
2019-05-02T07:36:00.159Z,103.97
2019-05-02T07:40:59.999Z,107.00
2019-05-02T07:43:29.377Z,103.45
2019-05-02T07:45:58.810Z,103.00
2019-05-02T07:48:28.264Z,111.03
2019-05-02T07:50:57.623Z,114.22
2019-05-02T07:53:27.075Z,116.65
2019-05-02T07:55:58.125Z,121.20
2019-05-02T07:58:27.506Z,111.25
2019-05-02T08:00:56.863Z,107.83
2019-05-02T08:03:29.358Z,107.75
2019-05-02T08:05:58.581Z,114.85
2019-05-02T08:08:29.922Z,103.50
2019-05-02T08:11:01.719Z,92.47
2019-05-02T08:13:31.499Z,99.45
2019-05-02T08:16:02.808Z,100.42
2019-05-02T08:18:32.243Z,88.90
2019-05-02T08:21:01.606Z,99.20
2019-05-02T08:23:32.031Z,104.45
2019-05-02T08:26:01.415Z,101.05
2019-05-02T08:28:41.399Z,100.50
2019-05-02T08:31:13.653Z,108.25
2019-05-02T08:33:41.979Z,112.22
2019-05-02T08:36:11.451Z,107.00
2019-05-02T08:38:40.880Z,102.15
2019-05-02T08:41:10.315Z,110.57
2019-05-02T08:43:40.071Z,103.42
2019-05-02T08:46:14.530Z,99.52
2019-05-02T08:48:43.794Z,105.25
2019-05-02T08:51:13.191Z,101.58
2019-05-02T08:53:42.558Z,113.35
2019-05-02T08:56:16.507Z,112.05
2019-05-02T08:58:44.858Z,105.85
2019-05-02T09:01:15.480Z,114.55
2019-05-02T09:04:00.520Z,116.82
2019-05-02T09:06:17.147Z,115.10
2019-05-02T09:08:51.318Z,116.85
2019-05-02T09:11:18.450Z,108.67
2019-05-02T09:13:48.206Z,116.82
2019-05-02T09:16:23.344Z,118.57
2019-05-02T09:18:51.919Z,113.12
2019-05-02T09:21:21.884Z,117.03
2019-05-02T09:23:51.997Z,117.33
2019-05-02T09:26:35.086Z,117.03
2019-05-02T09:28:56.268Z,110.88
2019-05-02T09:31:24.733Z,122.25
2019-05-02T09:33:55.664Z,111.55
2019-05-02T09:36:25.347Z,113.88
2019-05-02T09:38:57.626Z,108.63
2019-05-02T09:41:26.799Z,107.95
2019-05-02T09:43:56.935Z,108.92
2019-05-02T09:46:26.304Z,110.40
2019-05-02T09:48:57.185Z,103.17
2019-05-02T09:51:26.905Z,108.67
2019-05-02T09:53:57.144Z,108.92
2019-05-02T09:56:27.397Z,105.37
2019-05-02T09:59:06.167Z,106.45
2019-05-02T10:04:49.573Z,112.97
2019-05-02T10:07:19.075Z,97.40
2019-05-02T10:09:48.524Z,101.70
2019-05-02T10:12:17.959Z,97.62
2019-05-02T10:14:47.394Z,105.65
2019-05-02T10:17:18.488Z,96.47
2019-05-02T10:19:49.151Z,94.00
2019-05-02T10:22:18.887Z,103.17
2019-05-02T10:30:56.412Z,84.30
2019-05-02T10:33:27.961Z,84.47
2019-05-02T10:35:54.784Z,90.17
2019-05-02T10:41:48.135Z,76.85
2019-05-02T10:44:17.580Z,83.15
2019-05-02T10:46:54.144Z,76.65
2019-05-02T10:52:47.687Z,64.80
2019-05-02T10:55:21.740Z,56.42
2019-05-02T10:57:49.940Z,62.75
2019-05-02T11:00:23.445Z,56.23
2019-05-02T11:03:12.580Z,58.13
2019-05-02T11:05:43.579Z,56.05
2019-05-02T11:08:12.960Z,57.48
2019-05-02T11:10:42.856Z,57.20
2019-05-02T11:13:13.941Z,64.00
2019-05-02T11:15:49.387Z,62.60
2019-05-02T11:18:22.195Z,58.15
2019-05-02T11:20:52.505Z,57.00
2019-05-02T11:23:22.220Z,55.33
2019-05-02T11:25:52.673Z,56.42
2019-05-02T11:28:23.447Z,56.70
2019-05-02T11:30:56.972Z,59.08
2019-05-02T11:33:23.959Z,52.93
2019-05-02T11:35:53.620Z,41.10
2019-05-02T11:38:39.812Z,33.00
2019-05-02T11:41:06.729Z,32.95
2019-05-02T11:43:41.397Z,31.85
2019-05-02T11:46:08.112Z,35.30
2019-05-02T11:48:37.471Z,35.90
2019-05-02T11:51:07.429Z,38.67
2019-05-02T11:53:37.905Z,34.53
2019-05-02T11:56:08.478Z,38.45
2019-05-02T11:58:42.457Z,37.23
2019-05-02T12:01:09.459Z,38.42
2019-05-02T12:03:44.117Z,39.53
2019-05-02T12:06:19.120Z,38.48
2019-05-02T12:08:49.224Z,35.92
2019-05-02T12:11:17.712Z,38.23
2019-05-02T12:13:47.372Z,30.92
2019-05-02T12:16:17.973Z,23.30
2019-05-02T12:18:47.348Z,20.85
2019-05-02T12:21:16.865Z,22.67
2019-05-02T12:23:46.231Z,20.48
2019-05-02T12:26:15.671Z,22.87
2019-05-02T12:28:45.035Z,19.30
2019-05-02T12:31:29.209Z,18.67
2019-05-02T12:36:28.840Z,19.65
2019-05-02T12:38:58.260Z,17.37
2019-05-02T12:41:27.619Z,17.05
2019-05-02T12:43:56.988Z,17.23
2019-05-02T12:46:28.429Z,17.55
2019-05-02T12:48:57.424Z,16.95
2019-05-02T12:51:26.792Z,17.05
2019-05-02T12:53:56.155Z,23.47
2019-05-02T12:56:25.529Z,22.98
2019-05-02T12:58:54.900Z,24.02
2019-05-02T13:01:24.331Z,22.02
2019-05-02T13:03:58.020Z,21.93
2019-05-02T13:06:27.379Z,20.68
2019-05-02T13:08:56.739Z,21.23
2019-05-02T13:11:45.985Z,20.62
2019-05-02T13:14:19.730Z,21.68
2019-05-02T13:16:48.023Z,20.40
2019-05-02T13:19:17.776Z,20.88
2019-05-02T13:21:50.129Z,22.05
2019-05-02T13:24:29.115Z,25.97
2019-05-02T13:26:59.418Z,20.20
2019-05-02T13:29:26.993Z,19.32
2019-05-02T13:31:58.052Z,20.32
2019-05-02T13:34:32.075Z,19.00
2019-05-02T13:37:02.958Z,19.87
2019-05-02T13:39:45.893Z,21.40
2019-05-02T13:42:16.629Z,21.27
2019-05-02T13:47:58.211Z,23.70
2019-05-02T13:50:27.680Z,24.63
2019-05-02T13:52:57.992Z,23.50
2019-05-02T13:55:31.740Z,24.07
2019-05-02T13:58:02.509Z,22.42
2019-05-02T14:00:33.621Z,25.80
2019-05-02T14:03:03.108Z,25.45
2019-05-02T14:05:32.488Z,27.42
2019-05-02T14:08:18.450Z,31.97
2019-05-02T14:10:56.924Z,32.85
2019-05-02T14:13:27.447Z,32.88
2019-05-02T14:15:56.818Z,34.27
2019-05-02T14:18:28.926Z,34.23
2019-05-02T14:20:57.315Z,35.98
2019-05-02T14:23:27.271Z,35.33
2019-05-02T14:29:21.720Z,39.35
2019-05-02T14:31:51.938Z,42.27
2019-05-02T14:34:39.409Z,38.60
2019-05-02T14:41:03.067Z,41.80
2019-05-02T14:43:53.201Z,38.55
2019-05-02T14:46:28.891Z,40.00
2019-05-02T14:48:55.851Z,42.20
2019-05-02T14:51:27.622Z,42.90
2019-05-02T14:53:57.459Z,36.73
2019-05-02T14:56:32.862Z,34.15
2019-05-02T14:59:02.840Z,35.03
2019-05-02T15:01:32.299Z,31.05
2019-05-02T15:04:06.388Z,33.25
2019-05-02T15:10:08.684Z,34.48
2019-05-02T15:16:02.499Z,33.75
2019-05-02T15:18:32.182Z,32.65
2019-05-02T15:21:03.857Z,33.33
2019-05-02T15:23:32.696Z,31.48
2019-05-02T15:26:02.618Z,31.87
2019-05-02T15:28:37.375Z,32.42
2019-05-02T15:31:05.055Z,33.53
2019-05-02T15:33:36.172Z,37.65
2019-05-02T15:36:07.685Z,29.67
2019-05-02T15:38:42.107Z,32.45
2019-05-02T15:41:12.643Z,31.15
2019-05-02T15:43:44.109Z,32.88
2019-05-02T15:46:10.415Z,34.58
2019-05-02T15:52:28.012Z,33.23
2019-05-02T15:55:00.508Z,33.90
2019-05-02T15:57:38.090Z,38.30
2019-05-02T16:00:01.637Z,40.10
2019-05-02T16:02:33.087Z,38.13
2019-05-02T16:05:05.410Z,34.27
2019-05-02T16:07:38.054Z,33.65
2019-05-02T16:10:06.730Z,31.20
2019-05-02T16:12:37.723Z,37.98
2019-05-02T16:15:13.252Z,31.90
2019-05-02T16:17:38.339Z,28.98
2019-05-02T16:23:35.231Z,33.65
2019-05-02T16:29:36.677Z,27.00
2019-05-02T16:32:07.749Z,27.87
2019-05-02T16:34:54.182Z,29.95
2019-05-02T16:37:22.565Z,27.10
2019-05-02T16:39:52.187Z,29.52
2019-05-02T16:42:22.742Z,26.90
2019-05-02T16:44:54.717Z,30.97
2019-05-02T16:47:23.455Z,27.95
2019-05-02T16:49:56.294Z,28.55
2019-05-02T16:52:24.007Z,25.50
2019-05-02T16:54:53.459Z,25.97
2019-05-02T16:57:23.834Z,29.10
2019-05-02T17:00:01.005Z,32.40
2019-05-02T17:02:24.427Z,26.30
2019-05-02T17:04:54.745Z,27.25
2019-05-02T17:07:25.911Z,26.80
2019-05-02T17:10:14.676Z,26.05
2019-05-02T17:12:40.111Z,27.13
2019-05-02T17:15:31.270Z,26.15
2019-05-02T17:18:05.103Z,26.15
2019-05-02T17:20:31.931Z,23.90
2019-05-02T17:23:05.164Z,29.07
2019-05-02T17:25:32.603Z,28.07
2019-05-02T17:28:08.489Z,25.60
2019-05-02T17:34:08.651Z,23.47
2019-05-02T17:36:38.170Z,25.80
2019-05-02T17:39:08.424Z,22.67
2019-05-02T17:41:42.277Z,24.57
2019-05-02T17:47:21.316Z,20.97
2019-05-02T17:49:52.932Z,20.77
2019-05-02T17:55:56.763Z,14.33
2019-05-02T17:58:26.151Z,12.68
2019-05-02T18:00:57.419Z,14.40
2019-05-02T18:03:31.120Z,15.53
2019-05-02T18:05:59.272Z,11.60
2019-05-02T18:08:28.787Z,14.90
2019-05-02T18:11:00.193Z,11.18
2019-05-02T18:13:33.699Z,12.28
2019-05-02T18:16:00.248Z,13.80
2019-05-02T18:18:31.799Z,12.73
2019-05-02T18:24:23.808Z,11.63
2019-05-02T18:26:53.243Z,12.15
2019-05-02T18:29:22.687Z,13.05
2019-05-02T18:35:27.526Z,12.43
2019-05-02T18:37:57.004Z,15.43
2019-05-02T18:40:29.394Z,13.38
2019-05-02T18:46:10.412Z,15.45
2019-05-02T18:48:42.167Z,17.80
2019-05-02T18:51:11.075Z,15.68
2019-05-02T18:53:42.255Z,20.37
2019-05-02T18:56:12.431Z,20.23
2019-05-02T18:58:45.132Z,21.70
2019-05-02T19:01:16.151Z,25.08
2019-05-02T19:03:46.981Z,24.65
2019-05-02T19:06:15.440Z,24.45
2019-05-02T19:08:49.830Z,26.75
2019-05-02T19:11:18.362Z,25.95
2019-05-02T19:17:12.211Z,25.90
2019-05-02T19:19:41.947Z,29.10
2019-05-02T19:22:16.740Z,25.48
2019-05-02T19:24:43.584Z,32.33
2019-05-02T19:27:14.579Z,26.80
2019-05-02T19:29:48.114Z,27.50
2019-05-02T19:35:45.249Z,28.10
2019-05-02T19:38:11.698Z,30.88
2019-05-02T19:43:53.364Z,26.45
2019-05-02T19:46:24.566Z,30.05
2019-05-02T19:48:53.980Z,26.60
2019-05-02T19:51:23.352Z,29.37
2019-05-02T19:53:59.542Z,30.30
2019-05-02T19:56:24.286Z,29.12
2019-05-02T19:58:53.835Z,29.37
2019-05-02T20:04:57.606Z,27.35
2019-05-02T20:10:56.691Z,26.45
2019-05-02T20:13:28.363Z,29.52
2019-05-02T20:15:57.049Z,29.00
2019-05-02T20:18:28.659Z,27.42
2019-05-02T20:21:12.128Z,28.30
2019-05-02T20:23:43.016Z,31.55
2019-05-02T20:26:15.438Z,29.67
2019-05-02T20:28:42.582Z,24.87
2019-05-02T20:31:12.349Z,24.87
2019-05-02T20:33:43.062Z,26.42
2019-05-02T20:36:12.893Z,29.85
2019-05-02T20:38:42.348Z,28.38
2019-05-02T20:41:12.749Z,30.05
2019-05-02T20:43:44.776Z,26.90
2019-05-02T20:46:13.607Z,31.37
2019-05-02T20:48:43.074Z,27.25
2019-05-02T20:51:12.583Z,33.00
2019-05-02T20:53:42.223Z,30.23
2019-05-02T20:56:12.413Z,31.65
2019-05-02T20:58:42.103Z,28.77
2019-05-02T21:01:12.721Z,30.48
2019-05-02T21:03:42.846Z,30.02
2019-05-02T21:06:19.726Z,27.87
2019-05-02T21:08:57.137Z,28.50
2019-05-02T21:11:27.246Z,29.77
2019-05-02T21:13:56.799Z,30.82
2019-05-02T21:16:26.325Z,29.55
2019-05-02T21:18:55.793Z,30.35
2019-05-02T21:21:26.200Z,30.02
2019-05-02T21:23:55.654Z,33.40
2019-05-02T21:26:26.534Z,28.42
2019-05-02T21:28:56.065Z,27.77
2019-05-02T21:31:25.545Z,33.35
2019-05-02T21:33:55.026Z,31.48
2019-05-02T21:36:24.481Z,28.30
2019-05-02T21:38:53.934Z,30.15
2019-05-02T21:41:23.542Z,27.82
2019-05-02T21:47:28.237Z,26.33
2019-05-02T21:49:59.336Z,22.95
2019-05-02T21:52:36.146Z,23.12
2019-05-02T21:55:15.792Z,27.27
2019-05-02T21:57:45.261Z,22.15
2019-05-02T22:00:19.430Z,30.23
2019-05-02T22:02:52.234Z,20.97
2019-05-02T22:05:22.222Z,25.80
2019-05-02T22:07:52.319Z,20.82
2019-05-02T22:10:23.005Z,22.87
2019-05-02T22:12:52.463Z,21.75
2019-05-02T22:15:22.007Z,19.05
2019-05-02T22:17:52.273Z,21.37
2019-05-02T22:20:22.943Z,17.98
2019-05-02T22:26:43.387Z,17.70
2019-05-02T22:29:12.340Z,16.42
2019-05-02T22:31:43.045Z,16.10
2019-05-02T22:34:13.036Z,16.93
2019-05-02T22:36:44.042Z,17.02
2019-05-02T22:39:32.071Z,18.20
2019-05-02T22:42:04.346Z,16.95
2019-05-02T22:44:32.706Z,15.38
2019-05-02T22:50:37.638Z,15.13
2019-05-02T22:53:07.109Z,14.20
2019-05-02T22:55:36.641Z,16.32
2019-05-02T22:58:06.110Z,11.70
2019-05-02T23:00:35.573Z,14.03
2019-05-02T23:03:05.161Z,12.82
2019-05-02T23:05:34.625Z,11.78
2019-05-02T23:08:04.088Z,11.22
2019-05-02T23:10:33.555Z,13.80
2019-05-02T23:13:03.090Z,9.70
2019-05-02T23:15:32.538Z,12.00
2019-05-02T23:18:01.994Z,10.48
2019-05-02T23:20:32.883Z,11.18
2019-05-02T23:23:02.633Z,8.80
2019-05-02T23:25:48.726Z,8.33
2019-05-02T23:28:19.808Z,9.95
2019-05-02T23:30:51.886Z,7.70
2019-05-02T23:33:23.382Z,9.38
2019-05-02T23:35:52.531Z,9.40
2019-05-02T23:38:21.993Z,12.70
2019-05-02T23:40:52.642Z,9.88
2019-05-02T23:43:22.244Z,9.18
2019-05-02T23:45:51.718Z,8.23
2019-05-02T23:48:22.102Z,10.58
2019-05-02T23:50:52.151Z,10.40
2019-05-02T23:53:22.107Z,11.97
2019-05-02T23:55:51.641Z,8.18
2019-05-02T23:58:22.613Z,8.75
